Time;durP1;ratioP1;P1;durP2;ratioP2;P2;SDS_P1;SDS_P2;PMS_P1;PMS_P2;Temp;Humidity;BMP_temperature;BMP_pressure;BME280_temperature;BME280_humidity;BME280_pressure;Samples;Min_cycle;Max_cycle;Signal;HPM_P1;HPM_P2
2021/06/15 00:01:02;;;;;;;2.33;1.63;;;18.50;99.90;;;;;;5009274;28;20237;-89
2021/06/15 00:03:33;;;;;;;2.10;1.50;;;18.40;99.90;;;;;;4997539;28;20245;-89
2021/06/15 00:06:04;;;;;;;2.17;1.33;;;18.70;99.90;;;;;;4997369;28;20218;-89
2021/06/15 00:08:35;;;;;;;2.70;1.77;;;18.90;99.90;;;;;;4995903;28;20242;-90
2021/06/15 00:11:06;;;;;;;3.07;1.40;;;18.90;99.90;;;;;;4997005;28;20643;-90
2021/06/15 00:13:39;;;;;;;4.40;1.73;;;19.10;99.90;;;;;;4990793;28;20206;-89
2021/06/15 00:16:10;;;;;;;3.47;1.70;;;19.20;99.90;;;;;;4997703;28;20317;-91
2021/06/15 00:18:41;;;;;;;2.07;1.40;;;19.10;99.90;;;;;;4985849;28;20238;-90
2021/06/15 00:21:12;;;;;;;2.27;1.20;;;19.10;99.90;;;;;;4996675;28;20297;-90
2021/06/15 00:23:43;;;;;;;1.60;1.50;;;19.10;99.90;;;;;;4989012;28;20226;-89
2021/06/15 00:26:14;;;;;;;2.20;1.37;;;18.90;99.90;;;;;;4988758;28;20280;-88
2021/06/15 00:28:49;;;;;;;1.87;1.43;;;19.00;99.90;;;;;;4997115;28;20618;-91
2021/06/15 00:31:23;;;;;;;2.60;1.43;;;18.70;99.90;;;;;;4997196;28;20289;-89
2021/06/15 00:33:54;;;;;;;2.47;1.30;;;18.80;99.90;;;;;;4997352;28;20213;-91
2021/06/15 00:36:26;;;;;;;2.67;1.50;;;18.90;99.90;;;;;;4997739;28;20288;-89
2021/06/15 00:38:57;;;;;;;4.93;1.33;;;18.70;99.90;;;;;;4997109;28;20233;-87
2021/06/15 00:41:28;;;;;;;1.90;1.60;;;18.60;99.90;;;;;;4997453;28;20615;-93
2021/06/15 00:44:02;;;;;;;2.33;1.43;;;18.50;99.90;;;;;;4997412;28;20237;-91
2021/06/15 00:46:33;;;;;;;2.17;1.47;;;18.70;99.90;;;;;;4977668;28;20223;-89
2021/06/15 00:49:04;;;;;;;1.53;1.40;;;18.70;99.90;;;;;;4976556;28;20660;-86
2021/06/15 00:51:35;;;;;;;2.47;1.37;;;18.60;99.90;;;;;;4978427;28;20247;-89
2021/06/15 00:54:06;;;;;;;1.60;1.47;;;18.70;99.90;;;;;;4987205;28;20231;-92
2021/06/15 00:56:37;;;;;;;2.83;1.40;;;18.90;99.90;;;;;;4996943;28;20265;-92
2021/06/15 00:59:10;;;;;;;2.03;1.60;;;18.90;99.90;;;;;;4998369;28;20638;-89
2021/06/15 01:01:41;;;;;;;2.20;1.40;;;18.90;99.90;;;;;;4999541;28;20213;-93
2021/06/15 01:04:12;;;;;;;2.43;1.60;;;19.00;99.90;;;;;;5001877;28;20620;-93
2021/06/15 01:06:51;;;;;;;2.93;1.53;;;19.00;99.90;;;;;;4998552;28;20229;-92
2021/06/15 01:09:31;;;;;;;4.43;1.97;;;18.90;99.90;;;;;;4997592;28;20665;-92
2021/06/15 01:12:14;;;;;;;2.33;1.73;;;19.00;99.90;;;;;;4998278;28;20244;-93
2021/06/15 01:14:56;;;;;;;2.70;1.60;;;19.10;99.90;;;;;;4983906;28;20215;-92
2021/06/15 01:17:33;;;;;;;4.40;1.70;;;19.20;99.90;;;;;;4977179;28;21118;-93
2021/06/15 01:20:16;;;;;;;2.07;1.60;;;19.40;99.90;;;;;;4992888;28;20218;-94
2021/06/15 01:23:11;;;;;;;2.87;1.47;;;19.90;99.90;;;;;;4996691;28;20226;-96
2021/06/15 01:26:03;;;;;;;2.07;1.80;;;20.10;99.90;;;;;;4993647;28;20270;-90
2021/06/15 01:28:41;;;;;;;3.47;1.63;;;20.30;99.90;;;;;;4996054;28;20293;-93
2021/06/15 01:31:19;;;;;;;1.73;1.30;;;20.40;99.90;;;;;;4995929;28;20305;-95
2021/06/15 01:33:55;;;;;;;1.70;1.50;;;20.20;99.90;;;;;;4995578;28;20270;-94
2021/06/15 01:36:32;;;;;;;2.20;1.33;;;19.50;99.90;;;;;;4998889;28;20210;-93
2021/06/15 01:39:09;;;;;;;2.77;1.60;;;19.60;99.90;;;;;;5012667;28;20202;-93
2021/06/15 01:41:44;;;;;;;1.10;1.00;;;19.70;99.90;;;;;;5013977;28;20214;-93
2021/06/15 01:44:19;;;;;;;1.43;1.10;;;19.70;99.90;;;;;;5001508;28;20233;-92
2021/06/15 01:46:56;;;;;;;2.23;1.20;;;19.50;99.90;;;;;;4647953;28;10000980;-93
2021/06/15 01:49:30;;;;;;;2.47;1.20;;;19.60;99.90;;;;;;4997582;28;20313;-96
2021/06/15 01:52:03;;;;;;;2.97;1.37;;;19.70;99.90;;;;;;4992760;28;20723;-91
2021/06/15 01:54:36;;;;;;;1.20;1.10;;;20.00;99.90;;;;;;4994709;28;20222;-90
2021/06/15 01:57:09;;;;;;;2.80;1.43;;;20.00;99.90;;;;;;4994731;28;20265;-87
2021/06/15 01:59:46;;;;;;;1.67;1.30;;;19.90;99.90;;;;;;4994570;28;20710;-88
2021/06/15 02:02:19;;;;;;;1.47;1.23;;;19.70;99.90;;;;;;4994557;28;20241;-92
2021/06/15 02:04:53;;;;;;;1.87;1.50;;;19.90;99.90;;;;;;5002151;28;20304;-89
2021/06/15 02:07:26;;;;;;;1.60;1.40;;;19.60;99.90;;;;;;4994682;28;20293;-89
2021/06/15 02:10:09;;;;;;;2.40;1.30;;;19.30;99.90;;;;;;4995314;28;20678;-89
2021/06/15 02:12:42;;;;;;;1.20;1.10;;;19.30;99.90;;;;;;4996661;28;20292;-90
2021/06/15 02:15:17;;;;;;;1.70;1.10;;;19.30;99.90;;;;;;4991045;28;20210;-91
2021/06/15 02:17:50;;;;;;;1.50;1.33;;;19.30;99.90;;;;;;5001015;28;20233;-91
2021/06/15 02:20:25;;;;;;;1.97;1.20;;;19.30;99.90;;;;;;4996360;28;20257;-90
2021/06/15 02:22:57;;;;;;;1.50;1.40;;;19.30;99.90;;;;;;4997742;28;20297;-89
2021/06/15 02:25:34;;;;;;;1.23;1.13;;;19.30;99.90;;;;;;4998726;28;20333;-90
2021/06/15 02:28:05;;;;;;;2.47;1.20;;;19.30;99.90;;;;;;4995799;28;20248;-90
2021/06/15 02:30:38;;;;;;;2.27;1.13;;;19.10;99.90;;;;;;5007338;28;20215;-90
2021/06/15 02:33:12;;;;;;;2.33;1.20;;;19.00;99.90;;;;;;5011782;28;20232;-90
2021/06/15 02:35:49;;;;;;;2.03;1.27;;;18.90;99.90;;;;;;5005181;28;20293;-87
2021/06/15 02:38:26;;;;;;;2.47;1.17;;;18.80;99.90;;;;;;4999714;28;20785;-91
2021/06/15 02:41:02;;;;;;;1.30;1.20;;;18.70;99.90;;;;;;4997184;28;20213;-89
2021/06/15 02:43:34;;;;;;;2.00;1.03;;;18.60;99.90;;;;;;4995451;28;20296;-89
2021/06/15 02:46:10;;;;;;;2.27;1.00;;;18.50;99.90;;;;;;4994796;28;20203;-88
2021/06/15 02:48:44;;;;;;;1.17;1.07;;;18.50;99.90;;;;;;4992995;28;20205;-89
2021/06/15 02:51:16;;;;;;;1.67;1.20;;;18.60;99.90;;;;;;4992691;28;20365;-88
2021/06/15 02:53:54;;;;;;;1.50;1.20;;;18.50;99.90;;;;;;4993848;28;20301;-89
2021/06/15 02:56:29;;;;;;;2.03;1.57;;;18.40;99.90;;;;;;4993674;28;20272;-88
2021/06/15 02:59:00;;;;;;;1.20;1.10;;;18.30;99.90;;;;;;4994340;28;20856;-89
2021/06/15 03:01:33;;;;;;;1.60;1.30;;;18.20;99.90;;;;;;4997604;28;20210;-89
2021/06/15 03:04:04;;;;;;;2.90;1.20;;;18.10;99.90;;;;;;4988942;28;20210;-89
2021/06/15 03:06:35;;;;;;;3.50;1.30;;;18.10;99.90;;;;;;4996922;28;20643;-89
2021/06/15 03:09:06;;;;;;;2.20;1.17;;;18.20;99.90;;;;;;4997544;28;20234;-89
2021/06/15 03:11:43;;;;;;;1.20;1.10;;;18.30;99.90;;;;;;4991160;28;20222;-88
2021/06/15 03:14:19;;;;;;;2.43;1.20;;;18.20;99.90;;;;;;4993867;28;20202;-89
2021/06/15 03:16:57;;;;;;;1.40;1.17;;;18.20;99.90;;;;;;4998414;28;20304;-89
2021/06/15 03:19:41;;;;;;;3.33;1.17;;;18.10;99.90;;;;;;4998492;28;20217;-88
2021/06/15 03:22:16;;;;;;;1.60;1.20;;;18.10;99.90;;;;;;4997410;28;20260;-89
2021/06/15 03:24:57;;;;;;;1.97;1.17;;;18.00;99.90;;;;;;4998723;28;20272;-89
2021/06/15 03:27:34;;;;;;;1.23;1.13;;;18.00;99.90;;;;;;4997367;28;20389;-89
2021/06/15 03:30:12;;;;;;;1.77;1.20;;;17.90;99.90;;;;;;4996512;28;20199;-88
2021/06/15 03:32:50;;;;;;;2.57;1.10;;;17.80;99.90;;;;;;4997625;28;20289;-89
2021/06/15 03:35:25;;;;;;;1.63;1.30;;;17.60;99.90;;;;;;4997162;28;20271;-87
2021/06/15 03:38:01;;;;;;;1.53;1.40;;;17.60;99.90;;;;;;4996982;28;20729;-87
2021/06/15 03:40:35;;;;;;;2.37;1.73;;;17.50;99.90;;;;;;4996212;28;20217;-88
2021/06/15 03:43:09;;;;;;;2.53;1.43;;;17.40;99.90;;;;;;4997635;28;20214;-88
2021/06/15 03:45:43;;;;;;;1.93;1.10;;;17.40;99.90;;;;;;4997790;28;20687;-89
2021/06/15 03:48:18;;;;;;;2.73;1.30;;;17.30;99.90;;;;;;4997041;28;20256;-88
2021/06/15 03:50:53;;;;;;;1.37;1.13;;;17.20;99.90;;;;;;4996420;28;20296;-89
2021/06/15 03:53:29;;;;;;;2.40;1.33;;;17.10;99.90;;;;;;4984303;28;20234;-88
2021/06/15 03:56:02;;;;;;;2.13;1.40;;;17.10;99.90;;;;;;4977817;28;20308;-88
2021/06/15 03:58:35;;;;;;;2.00;1.40;;;17.10;99.90;;;;;;4977844;28;20318;-88
2021/06/15 04:01:07;;;;;;;2.40;1.17;;;17.10;99.90;;;;;;4996791;28;20206;-90
2021/06/15 04:03:42;;;;;;;3.90;1.40;;;17.10;99.90;;;;;;5016586;28;20217;-88
2021/06/15 04:06:15;;;;;;;1.30;1.20;;;17.10;99.90;;;;;;5011309;28;20228;-88
2021/06/15 04:08:48;;;;;;;3.20;1.47;;;17.00;99.90;;;;;;4978518;28;20294;-89
2021/06/15 04:11:20;;;;;;;3.00;1.20;;;16.90;99.90;;;;;;4982040;28;20545;-89
2021/06/15 04:13:52;;;;;;;1.50;1.40;;;16.90;99.90;;;;;;4996539;28;20297;-89
2021/06/15 04:16:23;;;;;;;3.83;1.33;;;16.80;99.90;;;;;;4996425;28;20731;-88
2021/06/15 04:18:58;;;;;;;1.57;1.47;;;16.80;99.90;;;;;;4996848;28;20649;-89
2021/06/15 04:21:32;;;;;;;3.70;1.60;;;16.70;99.90;;;;;;4996157;28;20233;-88
2021/06/15 04:24:06;;;;;;;1.30;1.20;;;16.70;99.90;;;;;;4996901;28;20289;-88
2021/06/15 04:26:38;;;;;;;2.17;1.20;;;16.60;99.90;;;;;;4997784;28;20292;-89
2021/06/15 04:29:10;;;;;;;2.13;0.87;;;16.50;99.90;;;;;;4997289;28;20249;-88
2021/06/15 04:31:43;;;;;;;2.70;1.67;;;16.50;99.90;;;;;;4995713;28;20302;-89
2021/06/15 04:34:19;;;;;;;1.53;1.40;;;16.40;99.90;;;;;;4996395;28;20301;-88
2021/06/15 04:36:51;;;;;;;1.67;1.40;;;16.30;99.90;;;;;;4996264;28;20293;-88
2021/06/15 04:39:24;;;;;;;3.27;1.53;;;16.30;99.90;;;;;;4995756;28;20234;-88
2021/06/15 04:42:02;;;;;;;1.97;1.50;;;16.20;99.90;;;;;;4995182;28;20209;-88
2021/06/15 04:44:37;;;;;;;2.40;1.50;;;16.10;99.90;;;;;;4995741;28;20249;-88
2021/06/15 04:47:16;;;;;;;1.50;1.40;;;16.10;99.90;;;;;;4995006;28;20280;-88
2021/06/15 04:49:55;;;;;;;2.53;1.80;;;16.10;99.90;;;;;;4995246;28;20241;-90
2021/06/15 04:52:28;;;;;;;2.00;1.83;;;16.00;99.90;;;;;;4996034;28;20255;-88
2021/06/15 04:55:02;;;;;;;2.13;1.67;;;15.90;99.90;;;;;;4995980;28;20293;-88
2021/06/15 04:57:38;;;;;;;2.73;1.50;;;15.80;99.90;;;;;;4995943;28;20409;-88
2021/06/15 05:00:10;;;;;;;2.17;1.87;;;15.80;99.90;;;;;;5008883;28;20320;-89
2021/06/15 05:02:42;;;;;;;2.60;1.77;;;15.70;99.90;;;;;;5012161;28;20238;-89
2021/06/15 05:05:18;;;;;;;7.07;2.47;;;15.70;99.90;;;;;;5000462;28;20233;-89
2021/06/15 05:07:55;;;;;;;3.10;2.10;;;15.70;99.90;;;;;;5004778;28;20287;-89
2021/06/15 05:10:28;;;;;;;2.27;2.07;;;15.60;99.90;;;;;;4994867;28;20225;-89
2021/06/15 05:13:02;;;;;;;4.20;2.50;;;15.60;99.90;;;;;;4995665;28;20241;-89
2021/06/15 05:15:34;;;;;;;6.43;2.10;;;15.50;99.90;;;;;;4981075;28;20252;-89
2021/06/15 05:18:06;;;;;;;2.53;1.93;;;15.50;99.90;;;;;;4995902;28;20731;-89
2021/06/15 05:20:39;;;;;;;4.53;2.10;;;15.50;99.90;;;;;;4994907;28;20265;-88
2021/06/15 05:23:17;;;;;;;2.27;2.00;;;15.50;99.90;;;;;;4995835;28;20213;-89
2021/06/15 05:25:50;;;;;;;3.77;2.00;;;15.40;99.90;;;;;;4984931;28;20240;-89
2021/06/15 05:28:21;;;;;;;3.20;1.90;;;15.40;99.90;;;;;;4995324;28;20218;-88
2021/06/15 05:30:52;;;;;;;2.80;1.90;;;15.40;99.90;;;;;;4993893;28;20210;-89
2021/06/15 05:33:23;;;;;;;3.07;1.97;;;15.50;99.90;;;;;;4995804;28;20237;-89
2021/06/15 05:35:56;;;;;;;3.43;2.30;;;15.50;99.90;;;;;;4976140;28;20294;-89
2021/06/15 05:38:27;;;;;;;4.03;2.33;;;15.50;99.90;;;;;;4974963;28;20230;-89
2021/06/15 05:41:01;;;;;;;2.53;1.93;;;15.50;99.90;;;;;;4974748;28;20209;-89
2021/06/15 05:43:33;;;;;;;2.87;2.13;;;15.60;99.90;;;;;;4981305;28;20214;-89
2021/06/15 05:46:04;;;;;;;2.63;2.30;;;15.60;99.90;;;;;;4996040;28;20241;-89
2021/06/15 05:48:35;;;;;;;4.27;1.97;;;15.60;99.90;;;;;;4996283;28;20206;-89
2021/06/15 05:51:08;;;;;;;2.33;1.70;;;15.50;99.90;;;;;;4994237;28;20238;-90
2021/06/15 05:53:39;;;;;;;4.17;2.17;;;15.50;99.90;;;;;;4996724;28;20289;-89
2021/06/15 05:56:10;;;;;;;3.97;2.10;;;15.40;99.90;;;;;;4993332;28;20242;-89
2021/06/15 05:58:41;;;;;;;3.33;2.00;;;15.40;99.90;;;;;;4993872;28;20703;-89
2021/06/15 06:01:11;;;;;;;2.43;1.83;;;15.40;99.90;;;;;;4989166;28;20237;-90
2021/06/15 06:03:46;;;;;;;5.00;1.90;;;15.40;99.90;;;;;;4994164;28;20221;-90
2021/06/15 06:09:08;;;;;;;4.97;1.90;;;15.20;99.90;;;;;;4995232;28;20210;-90
2021/06/15 06:11:39;;;;;;;1.80;1.70;;;15.20;99.90;;;;;;4994026;28;20250;-90
2021/06/15 06:14:10;;;;;;;2.57;1.80;;;15.10;99.90;;;;;;4994824;28;20302;-89
2021/06/15 06:16:42;;;;;;;3.43;1.77;;;15.10;99.90;;;;;;4993336;28;20337;-90
2021/06/15 06:19:16;;;;;;;2.53;1.87;;;15.10;99.90;;;;;;4994843;28;20288;-90
2021/06/15 06:21:49;;;;;;;1.77;1.20;;;15.10;99.90;;;;;;5007978;28;20218;-90
2021/06/15 06:24:20;;;;;;;3.27;1.50;;;15.10;99.90;;;;;;5014061;28;20669;-89
2021/06/15 06:26:51;;;;;;;3.90;1.50;;;15.20;99.90;;;;;;5014751;28;20206;-90
2021/06/15 06:29:23;;;;;;;3.07;1.40;;;15.10;99.90;;;;;;4995506;28;20293;-89
2021/06/15 06:31:54;;;;;;;3.27;1.70;;;15.20;99.90;;;;;;4994315;28;20206;-89
2021/06/15 06:34:25;;;;;;;2.23;1.53;;;15.30;99.90;;;;;;4994142;28;20245;-89
2021/06/15 06:36:58;;;;;;;5.60;1.20;;;15.30;99.90;;;;;;4994695;28;20249;-89
2021/06/15 06:39:29;;;;;;;4.97;1.30;;;15.40;99.90;;;;;;4994241;28;20237;-89
2021/06/15 06:42:00;;;;;;;3.77;1.50;;;15.40;99.90;;;;;;4993652;28;20221;-90
2021/06/15 06:44:35;;;;;;;2.27;1.30;;;15.40;99.90;;;;;;4994925;28;20217;-90
2021/06/15 06:47:06;;;;;;;3.17;1.43;;;15.40;99.90;;;;;;4994904;28;20226;-89
2021/06/15 06:49:37;;;;;;;3.27;1.57;;;15.40;99.90;;;;;;4997067;28;20213;-89
2021/06/15 06:52:10;;;;;;;3.67;1.30;;;15.40;99.90;;;;;;4996034;28;20238;-89
2021/06/15 06:54:40;;;;;;;3.67;1.20;;;15.30;99.90;;;;;;5010899;28;20249;-89
2021/06/15 06:57:11;;;;;;;3.90;1.40;;;15.30;99.90;;;;;;4994361;28;20583;-89
2021/06/15 06:59:42;;;;;;;2.03;1.10;;;15.30;99.90;;;;;;4994212;28;20218;-89
2021/06/15 07:02:12;;;;;;;1.60;1.10;;;15.30;99.90;;;;;;4994391;28;20289;-89
2021/06/15 07:04:43;;;;;;;4.10;1.47;;;15.20;99.90;;;;;;4994416;28;20302;-90
2021/06/15 07:07:16;;;;;;;4.87;1.53;;;15.20;99.90;;;;;;4994517;28;20683;-89
2021/06/15 07:09:47;;;;;;;3.20;1.27;;;15.10;99.90;;;;;;4994136;28;20217;-90
2021/06/15 07:12:18;;;;;;;3.90;1.20;;;15.10;99.90;;;;;;4995060;28;20226;-89
2021/06/15 07:14:49;;;;;;;5.07;1.50;;;15.10;99.90;;;;;;5013247;28;20213;-89
2021/06/15 07:17:20;;;;;;;2.70;1.03;;;15.00;99.90;;;;;;4997035;28;20280;-89
2021/06/15 07:19:51;;;;;;;4.13;1.40;;;15.00;99.90;;;;;;4998019;28;20265;-90
2021/06/15 07:22:23;;;;;;;2.33;1.23;;;15.00;99.90;;;;;;4995060;28;20237;-88
2021/06/15 07:24:54;;;;;;;3.20;1.23;;;15.10;99.90;;;;;;4994449;28;20242;-90
2021/06/15 07:27:25;;;;;;;2.93;1.30;;;15.00;99.90;;;;;;4994592;28;20238;-89
2021/06/15 07:29:59;;;;;;;4.47;1.30;;;15.00;99.90;;;;;;4994468;28;20221;-89
2021/06/15 07:32:30;;;;;;;1.73;1.37;;;15.00;99.90;;;;;;4993714;28;20242;-89
2021/06/15 07:35:01;;;;;;;2.83;1.20;;;15.00;99.90;;;;;;4993810;28;20222;-88
2021/06/15 07:37:34;;;;;;;2.27;1.40;;;14.90;99.90;;;;;;4996432;28;20238;-89
2021/06/15 07:40:06;;;;;;;4.23;1.13;;;14.90;99.90;;;;;;4997252;28;20234;-90
2021/06/15 07:42:37;;;;;;;1.90;1.10;;;14.90;99.90;;;;;;4995584;28;20245;-89
2021/06/15 07:45:09;;;;;;;4.47;1.37;;;14.80;99.90;;;;;;4996711;28;20655;-89
2021/06/15 07:47:40;;;;;;;4.30;1.17;;;14.80;99.90;;;;;;4998852;28;20218;-90
2021/06/15 07:50:15;;;;;;;3.47;1.20;;;14.80;99.90;;;;;;4999792;28;20301;-89
2021/06/15 07:52:49;;;;;;;6.50;1.30;;;14.70;99.90;;;;;;5001416;28;20240;-89
2021/06/15 07:55:21;;;;;;;2.93;1.20;;;14.60;99.90;;;;;;5015042;28;20211;-89
2021/06/15 07:57:52;;;;;;;3.27;1.17;;;14.60;99.90;;;;;;5017376;28;20198;-90
2021/06/15 08:00:23;;;;;;;4.03;1.30;;;14.50;99.90;;;;;;5017493;28;20233;-89
2021/06/15 08:02:54;;;;;;;2.97;1.50;;;14.50;99.90;;;;;;5001574;28;20206;-90
2021/06/15 08:05:25;;;;;;;1.80;1.17;;;14.50;99.90;;;;;;4998403;28;20280;-89
2021/06/15 08:07:57;;;;;;;5.70;1.23;;;14.40;99.90;;;;;;4998113;28;20253;-91
2021/06/15 08:10:28;;;;;;;4.60;1.00;;;14.30;99.90;;;;;;4996916;28;20214;-89
2021/06/15 08:13:01;;;;;;;3.93;1.50;;;14.30;99.90;;;;;;4997466;28;20270;-88
2021/06/15 08:15:32;;;;;;;3.97;1.60;;;14.30;99.90;;;;;;4995733;28;20226;-90
2021/06/15 08:18:03;;;;;;;3.20;1.40;;;14.30;99.90;;;;;;4999874;28;20205;-89
2021/06/15 08:20:34;;;;;;;3.70;1.30;;;14.20;99.90;;;;;;5015673;28;20308;-90
2021/06/15 08:23:07;;;;;;;2.03;1.20;;;14.20;99.90;;;;;;5016285;28;20301;-89
2021/06/15 08:25:38;;;;;;;5.07;1.33;;;14.20;99.90;;;;;;5016564;28;20297;-89
2021/06/15 08:28:10;;;;;;;3.23;1.30;;;14.20;99.90;;;;;;4999733;28;20317;-89
2021/06/15 08:30:41;;;;;;;4.00;1.40;;;14.20;99.90;;;;;;4995992;28;20265;-89
2021/06/15 08:33:12;;;;;;;3.00;1.20;;;14.10;99.90;;;;;;4996478;28;20278;-90
2021/06/15 08:35:43;;;;;;;7.30;1.70;;;14.10;99.90;;;;;;4997418;28;20297;-90
2021/06/15 08:38:18;;;;;;;3.43;1.80;;;14.10;99.90;;;;;;4997119;28;20675;-89
2021/06/15 08:40:51;;;;;;;3.20;1.30;;;14.00;99.90;;;;;;4998696;28;20230;-89
2021/06/15 08:43:22;;;;;;;3.93;1.10;;;14.00;99.90;;;;;;5017179;28;20206;-89
2021/06/15 08:45:54;;;;;;;3.17;1.40;;;13.90;99.90;;;;;;5017563;28;20241;-89
2021/06/15 08:48:25;;;;;;;2.90;1.50;;;13.90;99.90;;;;;;5010852;28;20214;-88
2021/06/15 08:50:56;;;;;;;4.40;1.50;;;13.90;99.90;;;;;;5002906;28;20226;-89
2021/06/15 08:53:29;;;;;;;5.87;1.60;;;13.80;99.90;;;;;;5000916;28;20214;-89
2021/06/15 08:56:07;;;;;;;4.53;1.20;;;13.80;99.90;;;;;;5001310;28;20218;-89
2021/06/15 08:58:54;;;;;;;6.20;1.50;;;13.80;99.90;;;;;;4996270;28;20678;-90
2021/06/15 09:01:26;;;;;;;2.60;1.17;;;13.80;99.90;;;;;;4995436;28;20230;-89
2021/06/15 09:03:57;;;;;;;3.87;1.30;;;13.80;99.90;;;;;;4976722;28;20297;-89
2021/06/15 09:06:28;;;;;;;5.47;1.57;;;13.70;99.90;;;;;;5010232;28;20288;-89
2021/06/15 09:09:02;;;;;;;1.67;1.27;;;13.80;99.90;;;;;;5015408;28;20674;-90
2021/06/15 09:11:50;;;;;;;4.43;1.50;;;13.80;99.90;;;;;;5004123;28;20210;-90
2021/06/15 09:14:41;;;;;;;2.17;1.10;;;13.70;99.90;;;;;;4995135;28;20245;-89
2021/06/15 09:17:13;;;;;;;3.10;1.10;;;13.70;99.90;;;;;;4995640;28;20214;-90
2021/06/15 09:19:45;;;;;;;6.70;1.30;;;13.70;99.90;;;;;;4995811;28;20213;-91
2021/06/15 09:22:32;;;;;;;4.37;1.40;;;13.70;99.90;;;;;;4995343;28;20261;-90
2021/06/15 09:25:06;;;;;;;3.50;1.73;;;13.70;99.90;;;;;;4995704;28;20254;-89
2021/06/15 09:27:39;;;;;;;2.50;1.10;;;13.70;99.90;;;;;;4995612;28;20284;-89
2021/06/15 09:30:11;;;;;;;3.73;1.40;;;13.70;99.90;;;;;;4993245;28;20297;-89
2021/06/15 09:32:44;;;;;;;2.30;1.00;;;13.60;99.90;;;;;;4994867;28;20336;-89
2021/06/15 09:35:17;;;;;;;2.63;1.17;;;13.60;99.90;;;;;;4993873;28;20206;-89
2021/06/15 09:37:50;;;;;;;5.37;1.23;;;13.60;99.90;;;;;;4995153;28;20206;-89
2021/06/15 09:40:25;;;;;;;3.30;1.03;;;13.60;99.90;;;;;;4993684;28;20629;-89
2021/06/15 09:43:03;;;;;;;3.30;1.17;;;13.60;99.90;;;;;;4994891;28;20292;-89
2021/06/15 09:45:35;;;;;;;2.63;1.20;;;13.60;99.90;;;;;;4994528;28;20249;-89
2021/06/15 09:48:29;;;;;;;4.23;1.30;;;13.50;99.90;;;;;;4975557;28;20284;-89
2021/06/15 09:51:01;;;;;;;5.63;1.47;;;13.50;99.90;;;;;;4974429;28;20243;-88
2021/06/15 09:53:34;;;;;;;4.10;1.50;;;13.50;99.90;;;;;;4987935;28;20248;-89
2021/06/15 09:56:10;;;;;;;6.83;2.17;;;13.60;99.90;;;;;;4994589;28;20635;-89
2021/06/15 09:58:49;;;;;;;5.53;1.50;;;13.60;99.90;;;;;;4994925;28;20240;-89
2021/06/15 10:01:38;;;;;;;3.33;1.33;;;13.60;99.90;;;;;;4993507;28;20265;-89
2021/06/15 10:04:14;;;;;;;6.70;1.27;;;13.60;99.90;;;;;;4995337;28;20224;-88
2021/06/15 10:06:47;;;;;;;2.43;1.30;;;13.60;99.90;;;;;;4995690;28;20637;-90
2021/06/15 10:09:25;;;;;;;5.23;1.87;;;13.60;99.90;;;;;;4997338;28;20237;-90
2021/06/15 10:12:00;;;;;;;3.07;1.17;;;13.60;99.90;;;;;;4993986;28;20214;-90
2021/06/15 10:14:32;;;;;;;5.57;1.57;;;13.60;99.90;;;;;;4994481;28;20240;-90
2021/06/15 10:17:04;;;;;;;4.10;1.60;;;13.60;99.90;;;;;;4994885;28;20304;-89
2021/06/15 10:19:35;;;;;;;2.60;1.40;;;13.60;99.90;;;;;;4994966;28;20206;-89
2021/06/15 10:22:07;;;;;;;6.70;1.60;;;13.60;99.90;;;;;;4993736;28;20238;-90
2021/06/15 10:24:38;;;;;;;5.40;1.40;;;13.60;99.90;;;;;;4994799;28;20298;-90
2021/06/15 10:27:14;;;;;;;5.30;1.53;;;13.60;99.90;;;;;;4995088;28;20219;-90
2021/06/15 10:29:51;;;;;;;5.93;1.40;;;13.60;99.90;;;;;;4994692;28;20288;-91
2021/06/15 10:32:23;;;;;;;4.23;1.50;;;13.50;99.90;;;;;;4995404;28;20288;-90
2021/06/15 10:34:57;;;;;;;2.90;1.60;;;13.50;99.90;;;;;;4994816;28;20210;-89
2021/06/15 10:37:52;;;;;;;5.10;1.43;;;13.50;99.90;;;;;;4994423;28;20301;-89
2021/06/15 10:40:42;;;;;;;5.47;1.73;;;13.40;99.90;;;;;;4984920;28;20699;-89
2021/06/15 10:43:19;;;;;;;3.17;1.23;;;13.40;99.90;;;;;;4990532;28;20246;-89
2021/06/15 10:45:53;;;;;;;7.73;1.60;;;13.40;99.90;;;;;;4975273;28;20234;-90
2021/06/15 10:48:40;;;;;;;5.10;1.37;;;13.40;99.90;;;;;;4981838;28;20239;-89
2021/06/15 10:51:44;;;;;;;4.17;1.53;;;13.40;99.90;;;;;;4973725;28;20401;-90
2021/06/15 10:54:40;;;;;;;4.27;1.53;;;13.40;99.90;;;;;;4968798;28;20290;-89
2021/06/15 10:57:21;;;;;;;7.23;1.77;;;13.30;99.90;;;;;;4981069;28;20260;-89
2021/06/15 11:00:15;;;;;;;7.47;1.40;;;13.30;99.90;;;;;;4993617;28;20229;-90
2021/06/15 11:03:18;;;;;;;7.10;1.63;;;13.30;99.90;;;;;;5013744;28;20254;-90
2021/06/15 11:05:55;;;;;;;4.93;1.30;;;13.30;99.90;;;;;;5014066;28;20214;-92
2021/06/15 11:08:28;;;;;;;5.63;1.87;;;13.30;99.90;;;;;;5004081;28;20643;-90
2021/06/15 11:11:03;;;;;;;7.40;1.40;;;13.30;99.90;;;;;;4993492;28;20266;-90
2021/06/15 11:13:45;;;;;;;5.33;1.53;;;13.30;99.90;;;;;;4994758;28;20245;-90
2021/06/15 11:16:40;;;;;;;3.90;1.50;;;13.30;99.90;;;;;;4995103;28;20593;-90
2021/06/15 11:19:33;;;;;;;7.30;1.50;;;13.30;99.90;;;;;;4994471;28;20269;-89
2021/06/15 11:22:11;;;;;;;4.77;1.30;;;13.30;99.90;;;;;;4997481;28;20230;-91
2021/06/15 11:24:48;;;;;;;4.07;1.20;;;13.30;99.90;;;;;;4998099;28;20217;-89
2021/06/15 11:27:34;;;;;;;2.67;1.20;;;13.30;99.90;;;;;;4998880;28;20707;-90
2021/06/15 11:30:23;;;;;;;7.27;1.53;;;13.30;99.90;;;;;;4997113;28;20229;-90
2021/06/15 11:33:05;;;;;;;6.27;1.90;;;13.30;99.90;;;;;;4998256;28;20203;-90
2021/06/15 11:35:42;;;;;;;6.93;1.67;;;13.30;99.90;;;;;;4997718;28;20296;-90
2021/06/15 11:38:18;;;;;;;3.83;1.50;;;13.30;99.90;;;;;;4998043;28;20726;-89
2021/06/15 11:40:49;;;;;;;5.13;1.63;;;13.20;99.90;;;;;;4997447;28;20221;-89
2021/06/15 11:43:23;;;;;;;5.97;1.37;;;13.20;99.90;;;;;;4999872;28;20240;-90
2021/06/15 11:45:56;;;;;;;2.33;1.30;;;13.10;99.90;;;;;;4997871;28;20257;-90
2021/06/15 11:48:33;;;;;;;4.67;1.33;;;13.00;99.90;;;;;;4997560;28;20238;-89
2021/06/15 11:51:06;;;;;;;5.73;1.50;;;13.00;99.90;;;;;;4996420;28;20218;-89
2021/06/15 11:53:39;;;;;;;6.67;1.77;;;13.00;99.90;;;;;;4997474;28;20675;-89
2021/06/15 11:56:11;;;;;;;4.37;1.40;;;13.00;99.90;;;;;;4996794;28;20243;-90
2021/06/15 11:58:43;;;;;;;6.03;1.60;;;13.00;99.90;;;;;;4997684;28;20297;-89
2021/06/15 12:01:16;;;;;;;4.03;1.67;;;13.00;99.90;;;;;;4999337;28;20297;-90
2021/06/15 12:03:50;;;;;;;4.83;1.77;;;13.00;99.90;;;;;;5002883;28;20316;-90
2021/06/15 12:06:22;;;;;;;3.33;1.73;;;13.00;99.90;;;;;;5004003;28;20252;-91
2021/06/15 12:08:53;;;;;;;5.60;1.53;;;13.00;99.90;;;;;;4997680;28;20218;-90
2021/06/15 12:11:24;;;;;;;6.87;1.73;;;13.00;99.90;;;;;;4997171;28;20347;-91
2021/06/15 12:13:55;;;;;;;4.33;2.00;;;13.00;99.90;;;;;;5000714;28;20241;-89
2021/06/15 12:16:26;;;;;;;4.93;1.70;;;13.00;99.90;;;;;;5016177;28;20233;-91
2021/06/15 12:19:00;;;;;;;6.47;1.80;;;13.00;99.90;;;;;;4997341;28;20221;-91
2021/06/15 12:21:35;;;;;;;4.90;1.60;;;13.00;99.90;;;;;;4996335;28;20241;-91
2021/06/15 12:24:12;;;;;;;5.67;1.70;;;13.00;99.90;;;;;;4997128;28;20249;-92
2021/06/15 12:26:46;;;;;;;1.50;1.40;;;12.90;99.90;;;;;;4996954;28;20236;-92
2021/06/15 12:29:18;;;;;;;4.40;1.63;;;12.90;99.90;;;;;;4996807;28;20237;-92
2021/06/15 12:31:51;;;;;;;4.70;1.50;;;12.80;99.90;;;;;;4995600;28;20872;-91
2021/06/15 12:34:25;;;;;;;3.40;1.50;;;12.80;99.90;;;;;;4996019;28;20265;-90
2021/06/15 12:37:03;;;;;;;5.30;1.93;;;12.80;99.90;;;;;;4996986;28;20214;-90
2021/06/15 12:39:36;;;;;;;6.70;1.87;;;12.80;99.90;;;;;;4996454;28;20290;-91
2021/06/15 12:42:14;;;;;;;3.83;1.63;;;12.80;99.90;;;;;;4650068;28;9999929;-91
2021/06/15 12:44:45;;;;;;;6.47;1.70;;;12.80;99.90;;;;;;4995973;28;20214;-90
2021/06/15 12:47:17;;;;;;;5.60;1.57;;;12.80;99.90;;;;;;4996364;28;20652;-91
2021/06/15 12:49:54;;;;;;;4.33;1.73;;;12.80;99.90;;;;;;4996738;28;20264;-93
2021/06/15 12:52:34;;;;;;;5.93;1.37;;;12.90;99.90;;;;;;4994350;28;20210;-91
2021/06/15 12:55:11;;;;;;;3.43;1.63;;;13.00;99.90;;;;;;4997151;28;20294;-90
2021/06/15 12:57:42;;;;;;;5.63;1.67;;;13.00;99.90;;;;;;5002121;28;20229;-90
2021/06/15 13:00:14;;;;;;;5.27;1.63;;;13.10;99.90;;;;;;4996250;28;20289;-90
2021/06/15 13:02:44;;;;;;;5.37;1.40;;;13.10;99.90;;;;;;4997052;28;20816;-90
2021/06/15 13:05:21;;;;;;;2.90;1.20;;;13.20;99.90;;;;;;4997937;28;20702;-91
2021/06/15 13:07:58;;;;;;;5.37;1.70;;;13.20;99.90;;;;;;4998691;28;20210;-91
2021/06/15 13:10:29;;;;;;;5.93;1.57;;;13.20;99.90;;;;;;4998351;28;20214;-92
2021/06/15 13:13:03;;;;;;;5.57;1.77;;;13.10;99.90;;;;;;4999192;28;20210;-91
2021/06/15 13:15:35;;;;;;;5.00;1.70;;;13.10;99.90;;;;;;4999375;28;20304;-90
2021/06/15 13:18:10;;;;;;;4.87;1.80;;;13.10;99.90;;;;;;4999326;28;20291;-92
2021/06/15 13:20:44;;;;;;;6.63;1.33;;;13.10;99.90;;;;;;5007225;28;20245;-91
2021/06/15 13:23:19;;;;;;;6.23;1.53;;;13.00;99.90;;;;;;5016572;28;20238;-91
2021/06/15 13:25:50;;;;;;;4.43;1.43;;;13.00;99.90;;;;;;5025944;28;20185;-89